sensor_id;sensor_type;location;lat;lon;timestamp;P1;durP1;ratioP1;P2;durP2;ratioP2
41253;SDS011;26987;59.928;30.306;2023-09-19T00:01:40;21.15;;;7.60;;
41253;SDS011;26987;59.928;30.306;2023-09-19T00:04:12;16.50;;;8.05;;
41253;SDS011;26987;59.928;30.306;2023-09-19T00:06:40;22.85;;;8.65;;
41253;SDS011;26987;59.928;30.306;2023-09-19T00:09:10;22.15;;;9.02;;
41253;SDS011;26987;59.928;30.306;2023-09-19T00:11:38;20.67;;;10.27;;
41253;SDS011;26987;59.928;30.306;2023-09-19T00:14:07;25.23;;;10.57;;
41253;SDS011;26987;59.928;30.306;2023-09-19T00:16:35;21.80;;;10.57;;
41253;SDS011;26987;59.928;30.306;2023-09-19T00:19:03;23.15;;;11.68;;
41253;SDS011;26987;59.928;30.306;2023-09-19T00:21:36;29.60;;;12.05;;
41253;SDS011;26987;59.928;30.306;2023-09-19T00:24:04;24.52;;;12.43;;
41253;SDS011;26987;59.928;30.306;2023-09-19T00:26:32;33.58;;;13.13;;
41253;SDS011;26987;59.928;30.306;2023-09-19T00:29:00;29.25;;;14.68;;
41253;SDS011;26987;59.928;30.306;2023-09-19T00:31:34;30.60;;;14.70;;
41253;SDS011;26987;59.928;30.306;2023-09-19T00:34:03;31.02;;;14.73;;
41253;SDS011;26987;59.928;30.306;2023-09-19T00:36:37;34.75;;;15.52;;
41253;SDS011;26987;59.928;30.306;2023-09-19T00:39:05;29.77;;;16.27;;
41253;SDS011;26987;59.928;30.306;2023-09-19T00:41:34;38.40;;;16.20;;
41253;SDS011;26987;59.928;30.306;2023-09-19T00:44:02;32.22;;;15.98;;
41253;SDS011;26987;59.928;30.306;2023-09-19T00:46:31;31.73;;;16.33;;
41253;SDS011;26987;59.928;30.306;2023-09-19T00:48:59;37.17;;;15.43;;
41253;SDS011;26987;59.928;30.306;2023-09-19T00:51:27;30.02;;;15.30;;
41253;SDS011;26987;59.928;30.306;2023-09-19T00:53:57;34.17;;;16.52;;
41253;SDS011;26987;59.928;30.306;2023-09-19T00:56:26;32.13;;;16.77;;
41253;SDS011;26987;59.928;30.306;2023-09-19T00:58:54;33.25;;;16.42;;
41253;SDS011;26987;59.928;30.306;2023-09-19T01:01:22;42.47;;;19.08;;
41253;SDS011;26987;59.928;30.306;2023-09-19T01:03:51;42.25;;;18.90;;
41253;SDS011;26987;59.928;30.306;2023-09-19T01:06:19;42.70;;;17.58;;
41253;SDS011;26987;59.928;30.306;2023-09-19T01:08:48;40.10;;;17.52;;
41253;SDS011;26987;59.928;30.306;2023-09-19T01:11:18;34.25;;;16.90;;
41253;SDS011;26987;59.928;30.306;2023-09-19T01:13:55;41.45;;;18.25;;
41253;SDS011;26987;59.928;30.306;2023-09-19T01:16:31;31.80;;;15.63;;
41253;SDS011;26987;59.928;30.306;2023-09-19T01:19:07;29.95;;;15.50;;
41253;SDS011;26987;59.928;30.306;2023-09-19T01:21:55;33.85;;;16.10;;
41253;SDS011;26987;59.928;30.306;2023-09-19T01:27:43;34.30;;;15.48;;
41253;SDS011;26987;59.928;30.306;2023-09-19T01:30:31;35.33;;;14.48;;
41253;SDS011;26987;59.928;30.306;2023-09-19T01:33:03;34.63;;;15.27;;
41253;SDS011;26987;59.928;30.306;2023-09-19T01:35:33;24.55;;;13.10;;
41253;SDS011;26987;59.928;30.306;2023-09-19T01:38:05;24.92;;;13.80;;
41253;SDS011;26987;59.928;30.306;2023-09-19T01:40:38;21.88;;;12.07;;
41253;SDS011;26987;59.928;30.306;2023-09-19T01:43:11;25.63;;;13.40;;
41253;SDS011;26987;59.928;30.306;2023-09-19T01:45:49;25.80;;;12.88;;
41253;SDS011;26987;59.928;30.306;2023-09-19T01:51:09;26.70;;;13.88;;
41253;SDS011;26987;59.928;30.306;2023-09-19T01:53:41;27.80;;;13.40;;
41253;SDS011;26987;59.928;30.306;2023-09-19T01:56:21;26.35;;;13.40;;
41253;SDS011;26987;59.928;30.306;2023-09-19T01:58:53;29.27;;;13.85;;
41253;SDS011;26987;59.928;30.306;2023-09-19T02:01:28;31.33;;;14.07;;
41253;SDS011;26987;59.928;30.306;2023-09-19T02:03:57;25.38;;;13.88;;
41253;SDS011;26987;59.928;30.306;2023-09-19T02:06:25;25.88;;;13.00;;
41253;SDS011;26987;59.928;30.306;2023-09-19T02:08:54;26.73;;;12.88;;
41253;SDS011;26987;59.928;30.306;2023-09-19T02:11:22;34.53;;;13.25;;
41253;SDS011;26987;59.928;30.306;2023-09-19T02:13:50;23.15;;;12.13;;
41253;SDS011;26987;59.928;30.306;2023-09-19T02:16:19;26.60;;;11.98;;
41253;SDS011;26987;59.928;30.306;2023-09-19T02:18:49;19.00;;;10.00;;
41253;SDS011;26987;59.928;30.306;2023-09-19T02:21:17;22.00;;;11.60;;
41253;SDS011;26987;59.928;30.306;2023-09-19T02:23:45;21.70;;;11.82;;
41253;SDS011;26987;59.928;30.306;2023-09-19T02:26:13;31.70;;;13.43;;
41253;SDS011;26987;59.928;30.306;2023-09-19T02:28:42;22.08;;;11.95;;
41253;SDS011;26987;59.928;30.306;2023-09-19T02:31:11;21.30;;;12.55;;
41253;SDS011;26987;59.928;30.306;2023-09-19T02:33:39;25.00;;;13.25;;
41253;SDS011;26987;59.928;30.306;2023-09-19T02:36:09;27.38;;;12.73;;
41253;SDS011;26987;59.928;30.306;2023-09-19T02:38:37;24.27;;;12.63;;
41253;SDS011;26987;59.928;30.306;2023-09-19T02:41:05;21.60;;;12.35;;
41253;SDS011;26987;59.928;30.306;2023-09-19T02:43:33;17.38;;;11.30;;
41253;SDS011;26987;59.928;30.306;2023-09-19T02:46:02;19.52;;;10.85;;
41253;SDS011;26987;59.928;30.306;2023-09-19T02:48:30;19.13;;;10.35;;
41253;SDS011;26987;59.928;30.306;2023-09-19T02:51:00;19.50;;;10.90;;
41253;SDS011;26987;59.928;30.306;2023-09-19T02:53:31;20.33;;;11.23;;
41253;SDS011;26987;59.928;30.306;2023-09-19T02:55:59;23.17;;;11.10;;
41253;SDS011;26987;59.928;30.306;2023-09-19T02:58:27;21.95;;;10.43;;
41253;SDS011;26987;59.928;30.306;2023-09-19T03:00:56;20.80;;;9.32;;
41253;SDS011;26987;59.928;30.306;2023-09-19T03:03:25;16.33;;;8.90;;
41253;SDS011;26987;59.928;30.306;2023-09-19T03:05:55;15.05;;;8.02;;
41253;SDS011;26987;59.928;30.306;2023-09-19T03:08:24;12.95;;;6.22;;
41253;SDS011;26987;59.928;30.306;2023-09-19T03:10:53;13.45;;;6.45;;
41253;SDS011;26987;59.928;30.306;2023-09-19T03:13:21;13.02;;;5.50;;
41253;SDS011;26987;59.928;30.306;2023-09-19T03:15:49;12.07;;;5.43;;
41253;SDS011;26987;59.928;30.306;2023-09-19T03:18:21;11.43;;;5.18;;
41253;SDS011;26987;59.928;30.306;2023-09-19T03:20:52;9.25;;;4.22;;
41253;SDS011;26987;59.928;30.306;2023-09-19T03:23:22;11.80;;;4.03;;
41253;SDS011;26987;59.928;30.306;2023-09-19T03:25:50;6.70;;;3.65;;
41253;SDS011;26987;59.928;30.306;2023-09-19T03:28:20;7.63;;;3.30;;
41253;SDS011;26987;59.928;30.306;2023-09-19T03:30:57;6.45;;;3.03;;
41253;SDS011;26987;59.928;30.306;2023-09-19T03:33:27;9.65;;;2.83;;
41253;SDS011;26987;59.928;30.306;2023-09-19T03:35:58;6.53;;;2.55;;
41253;SDS011;26987;59.928;30.306;2023-09-19T03:38:27;7.38;;;2.58;;
41253;SDS011;26987;59.928;30.306;2023-09-19T03:40:55;10.43;;;2.60;;
41253;SDS011;26987;59.928;30.306;2023-09-19T03:43:24;5.35;;;2.35;;
41253;SDS011;26987;59.928;30.306;2023-09-19T03:45:53;4.80;;;2.05;;
41253;SDS011;26987;59.928;30.306;2023-09-19T03:48:22;4.43;;;2.38;;
41253;SDS011;26987;59.928;30.306;2023-09-19T03:50:51;4.88;;;2.20;;
41253;SDS011;26987;59.928;30.306;2023-09-19T03:53:23;4.43;;;2.25;;
41253;SDS011;26987;59.928;30.306;2023-09-19T03:55:51;6.10;;;2.13;;
41253;SDS011;26987;59.928;30.306;2023-09-19T03:58:18;6.30;;;2.13;;
41253;SDS011;26987;59.928;30.306;2023-09-19T04:00:48;4.82;;;2.47;;
41253;SDS011;26987;59.928;30.306;2023-09-19T04:03:17;5.80;;;2.63;;
41253;SDS011;26987;59.928;30.306;2023-09-19T04:05:47;4.00;;;1.95;;
41253;SDS011;26987;59.928;30.306;2023-09-19T04:08:15;7.07;;;2.20;;
41253;SDS011;26987;59.928;30.306;2023-09-19T04:10:43;4.68;;;2.20;;
41253;SDS011;26987;59.928;30.306;2023-09-19T04:13:11;4.10;;;1.80;;
41253;SDS011;26987;59.928;30.306;2023-09-19T04:15:39;9.15;;;2.90;;
41253;SDS011;26987;59.928;30.306;2023-09-19T04:18:09;7.18;;;2.20;;
41253;SDS011;26987;59.928;30.306;2023-09-19T04:20:37;8.18;;;2.58;;
41253;SDS011;26987;59.928;30.306;2023-09-19T04:23:04;4.97;;;2.28;;
41253;SDS011;26987;59.928;30.306;2023-09-19T04:25:33;3.33;;;1.95;;
41253;SDS011;26987;59.928;30.306;2023-09-19T04:28:01;4.65;;;1.73;;
41253;SDS011;26987;59.928;30.306;2023-09-19T04:30:30;6.65;;;2.03;;
41253;SDS011;26987;59.928;30.306;2023-09-19T04:32:58;4.85;;;2.05;;
41253;SDS011;26987;59.928;30.306;2023-09-19T04:35:29;7.72;;;2.13;;
41253;SDS011;26987;59.928;30.306;2023-09-19T04:37:57;4.22;;;1.98;;
41253;SDS011;26987;59.928;30.306;2023-09-19T04:40:33;5.10;;;2.00;;
41253;SDS011;26987;59.928;30.306;2023-09-19T04:43:01;5.32;;;1.70;;
41253;SDS011;26987;59.928;30.306;2023-09-19T04:45:29;3.85;;;1.70;;
41253;SDS011;26987;59.928;30.306;2023-09-19T04:47:57;5.95;;;1.70;;
41253;SDS011;26987;59.928;30.306;2023-09-19T04:50:25;5.72;;;1.55;;
41253;SDS011;26987;59.928;30.306;2023-09-19T04:52:55;8.60;;;2.25;;
41253;SDS011;26987;59.928;30.306;2023-09-19T04:55:23;5.85;;;1.60;;
41253;SDS011;26987;59.928;30.306;2023-09-19T04:57:51;3.25;;;1.55;;
41253;SDS011;26987;59.928;30.306;2023-09-19T05:00:20;3.45;;;1.27;;
41253;SDS011;26987;59.928;30.306;2023-09-19T05:02:50;6.85;;;1.70;;
41253;SDS011;26987;59.928;30.306;2023-09-19T05:05:18;21.67;;;1.95;;
41253;SDS011;26987;59.928;30.306;2023-09-19T05:07:46;3.60;;;1.55;;
41253;SDS011;26987;59.928;30.306;2023-09-19T05:10:16;7.68;;;2.08;;
41253;SDS011;26987;59.928;30.306;2023-09-19T05:12:45;11.85;;;2.05;;
41253;SDS011;26987;59.928;30.306;2023-09-19T05:15:13;6.07;;;2.20;;
41253;SDS011;26987;59.928;30.306;2023-09-19T05:17:47;14.05;;;1.92;;
41253;SDS011;26987;59.928;30.306;2023-09-19T05:20:16;6.32;;;2.17;;
41253;SDS011;26987;59.928;30.306;2023-09-19T05:22:46;4.97;;;1.63;;
41253;SDS011;26987;59.928;30.306;2023-09-19T05:25:17;5.05;;;1.98;;
41253;SDS011;26987;59.928;30.306;2023-09-19T05:27:46;3.40;;;1.75;;
41253;SDS011;26987;59.928;30.306;2023-09-19T05:30:14;7.03;;;1.88;;
41253;SDS011;26987;59.928;30.306;2023-09-19T05:32:42;10.95;;;2.47;;
41253;SDS011;26987;59.928;30.306;2023-09-19T05:35:10;5.05;;;1.73;;
41253;SDS011;26987;59.928;30.306;2023-09-19T05:37:39;4.38;;;2.22;;
41253;SDS011;26987;59.928;30.306;2023-09-19T05:40:07;4.50;;;2.22;;
41253;SDS011;26987;59.928;30.306;2023-09-19T05:42:38;4.45;;;1.98;;
41253;SDS011;26987;59.928;30.306;2023-09-19T05:45:07;4.97;;;1.83;;
41253;SDS011;26987;59.928;30.306;2023-09-19T05:47:38;7.07;;;1.45;;
41253;SDS011;26987;59.928;30.306;2023-09-19T05:50:09;8.38;;;2.03;;
41253;SDS011;26987;59.928;30.306;2023-09-19T05:52:37;8.73;;;2.17;;
41253;SDS011;26987;59.928;30.306;2023-09-19T05:55:05;4.90;;;1.63;;
41253;SDS011;26987;59.928;30.306;2023-09-19T05:57:33;7.00;;;2.20;;
41253;SDS011;26987;59.928;30.306;2023-09-19T06:00:03;5.72;;;2.78;;
41253;SDS011;26987;59.928;30.306;2023-09-19T06:02:38;3.65;;;1.70;;
41253;SDS011;26987;59.928;30.306;2023-09-19T06:05:06;7.97;;;2.78;;
41253;SDS011;26987;59.928;30.306;2023-09-19T06:07:36;9.43;;;2.38;;
41253;SDS011;26987;59.928;30.306;2023-09-19T06:10:04;5.25;;;2.00;;
41253;SDS011;26987;59.928;30.306;2023-09-19T06:12:33;7.07;;;1.80;;
41253;SDS011;26987;59.928;30.306;2023-09-19T06:15:06;8.70;;;2.25;;
41253;SDS011;26987;59.928;30.306;2023-09-19T06:17:38;5.00;;;2.47;;
41253;SDS011;26987;59.928;30.306;2023-09-19T06:20:07;5.95;;;1.73;;
41253;SDS011;26987;59.928;30.306;2023-09-19T06:22:38;7.53;;;2.08;;
41253;SDS011;26987;59.928;30.306;2023-09-19T06:25:07;9.13;;;2.28;;
41253;SDS011;26987;59.928;30.306;2023-09-19T06:27:38;8.43;;;2.22;;
41253;SDS011;26987;59.928;30.306;2023-09-19T06:30:10;6.13;;;2.00;;
41253;SDS011;26987;59.928;30.306;2023-09-19T06:32:39;6.55;;;1.98;;
41253;SDS011;26987;59.928;30.306;2023-09-19T06:35:10;6.45;;;1.95;;
41253;SDS011;26987;59.928;30.306;2023-09-19T06:37:38;7.53;;;2.42;;
41253;SDS011;26987;59.928;30.306;2023-09-19T06:40:08;7.35;;;2.08;;
41253;SDS011;26987;59.928;30.306;2023-09-19T06:42:40;7.47;;;2.00;;
41253;SDS011;26987;59.928;30.306;2023-09-19T06:45:10;13.65;;;2.13;;
41253;SDS011;26987;59.928;30.306;2023-09-19T06:47:39;4.85;;;1.85;;
41253;SDS011;26987;59.928;30.306;2023-09-19T06:50:07;4.70;;;1.80;;
41253;SDS011;26987;59.928;30.306;2023-09-19T06:52:39;6.00;;;2.25;;
41253;SDS011;26987;59.928;30.306;2023-09-19T06:55:07;4.60;;;1.80;;
41253;SDS011;26987;59.928;30.306;2023-09-19T06:57:36;4.95;;;1.90;;
41253;SDS011;26987;59.928;30.306;2023-09-19T07:00:04;8.35;;;2.05;;
41253;SDS011;26987;59.928;30.306;2023-09-19T07:02:36;4.03;;;1.80;;
41253;SDS011;26987;59.928;30.306;2023-09-19T07:05:04;8.30;;;2.28;;
41253;SDS011;26987;59.928;30.306;2023-09-19T07:07:33;8.20;;;2.10;;
41253;SDS011;26987;59.928;30.306;2023-09-19T07:10:01;5.22;;;1.98;;
41253;SDS011;26987;59.928;30.306;2023-09-19T07:12:29;6.88;;;1.98;;
41253;SDS011;26987;59.928;30.306;2023-09-19T07:14:57;7.55;;;1.95;;
41253;SDS011;26987;59.928;30.306;2023-09-19T07:17:28;9.52;;;2.38;;
41253;SDS011;26987;59.928;30.306;2023-09-19T07:19:57;8.75;;;2.45;;
41253;SDS011;26987;59.928;30.306;2023-09-19T07:22:26;9.23;;;2.53;;
41253;SDS011;26987;59.928;30.306;2023-09-19T07:24:53;11.40;;;2.60;;
41253;SDS011;26987;59.928;30.306;2023-09-19T07:27:21;10.77;;;2.70;;
41253;SDS011;26987;59.928;30.306;2023-09-19T07:29:49;8.57;;;3.25;;
41253;SDS011;26987;59.928;30.306;2023-09-19T07:32:17;14.25;;;2.95;;
41253;SDS011;26987;59.928;30.306;2023-09-19T07:34:45;4.93;;;2.13;;
41253;SDS011;26987;59.928;30.306;2023-09-19T07:37:14;9.90;;;3.70;;
41253;SDS011;26987;59.928;30.306;2023-09-19T07:39:42;6.28;;;2.45;;
41253;SDS011;26987;59.928;30.306;2023-09-19T07:42:10;8.50;;;3.20;;
41253;SDS011;26987;59.928;30.306;2023-09-19T07:44:43;3.60;;;2.13;;
41253;SDS011;26987;59.928;30.306;2023-09-19T07:47:13;3.90;;;2.00;;
41253;SDS011;26987;59.928;30.306;2023-09-19T07:49:41;5.15;;;2.75;;
41253;SDS011;26987;59.928;30.306;2023-09-19T07:52:09;7.88;;;2.33;;
41253;SDS011;26987;59.928;30.306;2023-09-19T07:54:39;6.53;;;2.33;;
41253;SDS011;26987;59.928;30.306;2023-09-19T07:57:07;5.70;;;2.53;;
41253;SDS011;26987;59.928;30.306;2023-09-19T07:59:35;13.20;;;2.97;;
41253;SDS011;26987;59.928;30.306;2023-09-19T08:02:04;5.15;;;2.40;;
41253;SDS011;26987;59.928;30.306;2023-09-19T08:04:34;7.57;;;2.25;;
41253;SDS011;26987;59.928;30.306;2023-09-19T08:07:02;3.97;;;2.33;;
41253;SDS011;26987;59.928;30.306;2023-09-19T08:09:30;6.85;;;2.25;;
41253;SDS011;26987;59.928;30.306;2023-09-19T08:12:02;3.80;;;2.25;;
41253;SDS011;26987;59.928;30.306;2023-09-19T08:14:31;8.20;;;2.72;;
41253;SDS011;26987;59.928;30.306;2023-09-19T08:16:59;4.97;;;2.35;;
41253;SDS011;26987;59.928;30.306;2023-09-19T08:19:27;5.05;;;2.33;;
41253;SDS011;26987;59.928;30.306;2023-09-19T08:21:55;15.77;;;2.30;;
41253;SDS011;26987;59.928;30.306;2023-09-19T08:24:24;4.28;;;2.70;;
41253;SDS011;26987;59.928;30.306;2023-09-19T08:26:54;7.05;;;3.35;;
41253;SDS011;26987;59.928;30.306;2023-09-19T08:29:25;4.72;;;2.83;;
41253;SDS011;26987;59.928;30.306;2023-09-19T08:31:54;12.27;;;3.53;;
41253;SDS011;26987;59.928;30.306;2023-09-19T08:34:22;14.00;;;4.72;;
41253;SDS011;26987;59.928;30.306;2023-09-19T08:36:50;9.70;;;2.83;;
41253;SDS011;26987;59.928;30.306;2023-09-19T08:39:18;12.60;;;3.75;;
41253;SDS011;26987;59.928;30.306;2023-09-19T08:41:46;4.47;;;2.83;;
41253;SDS011;26987;59.928;30.306;2023-09-19T08:44:14;9.95;;;3.45;;
41253;SDS011;26987;59.928;30.306;2023-09-19T08:46:43;5.15;;;3.08;;
41253;SDS011;26987;59.928;30.306;2023-09-19T08:49:13;6.78;;;3.22;;
41253;SDS011;26987;59.928;30.306;2023-09-19T08:51:48;9.10;;;2.90;;
41253;SDS011;26987;59.928;30.306;2023-09-19T08:54:25;8.95;;;3.20;;
41253;SDS011;26987;59.928;30.306;2023-09-19T08:57:00;11.23;;;3.40;;
41253;SDS011;26987;59.928;30.306;2023-09-19T08:59:34;13.25;;;3.85;;
41253;SDS011;26987;59.928;30.306;2023-09-19T09:02:09;6.38;;;3.53;;
41253;SDS011;26987;59.928;30.306;2023-09-19T09:04:39;10.15;;;3.13;;
41253;SDS011;26987;59.928;30.306;2023-09-19T09:07:10;7.20;;;3.60;;
41253;SDS011;26987;59.928;30.306;2023-09-19T09:09:38;9.15;;;3.22;;
41253;SDS011;26987;59.928;30.306;2023-09-19T09:12:08;7.85;;;3.35;;
41253;SDS011;26987;59.928;30.306;2023-09-19T09:14:39;7.43;;;3.50;;
41253;SDS011;26987;59.928;30.306;2023-09-19T09:17:07;9.77;;;3.25;;
41253;SDS011;26987;59.928;30.306;2023-09-19T09:19:37;4.68;;;2.83;;
41253;SDS011;26987;59.928;30.306;2023-09-19T09:22:06;4.07;;;3.15;;
41253;SDS011;26987;59.928;30.306;2023-09-19T09:24:35;7.72;;;3.50;;
41253;SDS011;26987;59.928;30.306;2023-09-19T09:27:05;6.57;;;3.17;;
41253;SDS011;26987;59.928;30.306;2023-09-19T09:29:43;8.85;;;3.05;;
41253;SDS011;26987;59.928;30.306;2023-09-19T09:32:22;9.23;;;3.17;;
41253;SDS011;26987;59.928;30.306;2023-09-19T09:34:53;7.88;;;3.58;;
41253;SDS011;26987;59.928;30.306;2023-09-19T09:37:22;6.18;;;3.83;;
41253;SDS011;26987;59.928;30.306;2023-09-19T09:39:52;9.35;;;4.10;;
41253;SDS011;26987;59.928;30.306;2023-09-19T09:42:29;10.32;;;3.72;;
41253;SDS011;26987;59.928;30.306;2023-09-19T09:45:12;7.43;;;3.50;;
41253;SDS011;26987;59.928;30.306;2023-09-19T09:47:44;7.45;;;3.78;;
41253;SDS011;26987;59.928;30.306;2023-09-19T09:50:24;7.00;;;3.75;;
41253;SDS011;26987;59.928;30.306;2023-09-19T09:53:07;6.90;;;3.97;;
41253;SDS011;26987;59.928;30.306;2023-09-19T09:56:00;10.73;;;4.00;;
41253;SDS011;26987;59.928;30.306;2023-09-19T09:58:32;10.88;;;3.60;;
41253;SDS011;26987;59.928;30.306;2023-09-19T10:01:01;7.85;;;3.75;;
41253;SDS011;26987;59.928;30.306;2023-09-19T10:03:35;9.27;;;3.70;;
41253;SDS011;26987;59.928;30.306;2023-09-19T10:06:09;10.77;;;3.90;;
41253;SDS011;26987;59.928;30.306;2023-09-19T10:08:57;5.93;;;3.60;;
41253;SDS011;26987;59.928;30.306;2023-09-19T10:11:31;14.20;;;4.15;;
41253;SDS011;26987;59.928;30.306;2023-09-19T10:14:05;8.10;;;4.27;;
41253;SDS011;26987;59.928;30.306;2023-09-19T10:16:35;12.40;;;4.38;;
41253;SDS011;26987;59.928;30.306;2023-09-19T10:19:15;7.88;;;3.50;;
41253;SDS011;26987;59.928;30.306;2023-09-19T10:21:52;8.07;;;4.13;;
41253;SDS011;26987;59.928;30.306;2023-09-19T10:24:22;15.25;;;4.38;;
41253;SDS011;26987;59.928;30.306;2023-09-19T10:26:50;7.57;;;4.03;;
41253;SDS011;26987;59.928;30.306;2023-09-19T10:29:21;7.45;;;3.88;;
41253;SDS011;26987;59.928;30.306;2023-09-19T10:31:52;8.30;;;4.32;;
41253;SDS011;26987;59.928;30.306;2023-09-19T10:34:20;7.53;;;4.40;;
41253;SDS011;26987;59.928;30.306;2023-09-19T10:36:49;10.13;;;4.57;;
41253;SDS011;26987;59.928;30.306;2023-09-19T10:39:20;10.43;;;3.85;;
41253;SDS011;26987;59.928;30.306;2023-09-19T10:41:50;7.72;;;4.75;;
41253;SDS011;26987;59.928;30.306;2023-09-19T10:44:25;6.78;;;4.60;;
41253;SDS011;26987;59.928;30.306;2023-09-19T10:46:54;6.10;;;4.13;;
41253;SDS011;26987;59.928;30.306;2023-09-19T10:49:23;8.48;;;5.07;;
41253;SDS011;26987;59.928;30.306;2023-09-19T10:51:53;8.77;;;4.13;;
41253;SDS011;26987;59.928;30.306;2023-09-19T10:54:25;9.85;;;5.05;;
41253;SDS011;26987;59.928;30.306;2023-09-19T10:56:56;8.35;;;4.22;;
41253;SDS011;26987;59.928;30.306;2023-09-19T10:59:25;9.00;;;4.50;;
41253;SDS011;26987;59.928;30.306;2023-09-19T11:01:57;10.23;;;4.70;;
41253;SDS011;26987;59.928;30.306;2023-09-19T11:04:28;8.73;;;5.68;;
41253;SDS011;26987;59.928;30.306;2023-09-19T11:07:07;10.65;;;4.57;;
41253;SDS011;26987;59.928;30.306;2023-09-19T11:09:44;9.55;;;4.78;;
41253;SDS011;26987;59.928;30.306;2023-09-19T11:24:28;10.75;;;4.90;;
41253;SDS011;26987;59.928;30.306;2023-09-19T11:27:11;8.50;;;4.78;;
41253;SDS011;26987;59.928;30.306;2023-09-19T11:29:43;8.95;;;4.68;;
41253;SDS011;26987;59.928;30.306;2023-09-19T11:32:11;12.07;;;4.40;;
41253;SDS011;26987;59.928;30.306;2023-09-19T11:34:40;14.55;;;5.30;;
41253;SDS011;26987;59.928;30.306;2023-09-19T11:40:38;9.95;;;4.35;;
41253;SDS011;26987;59.928;30.306;2023-09-19T11:46:05;8.40;;;4.80;;
41253;SDS011;26987;59.928;30.306;2023-09-19T11:51:14;10.20;;;4.70;;
41253;SDS011;26987;59.928;30.306;2023-09-19T11:53:54;12.55;;;5.28;;
41253;SDS011;26987;59.928;30.306;2023-09-19T11:56:24;7.82;;;4.50;;
41253;SDS011;26987;59.928;30.306;2023-09-19T11:58:54;8.30;;;3.80;;
41253;SDS011;26987;59.928;30.306;2023-09-19T12:01:27;6.65;;;4.70;;
41253;SDS011;26987;59.928;30.306;2023-09-19T12:03:58;9.45;;;4.38;;
41253;SDS011;26987;59.928;30.306;2023-09-19T12:06:28;25.45;;;4.80;;
41253;SDS011;26987;59.928;30.306;2023-09-19T12:08:58;9.18;;;4.97;;
41253;SDS011;26987;59.928;30.306;2023-09-19T12:11:33;7.20;;;4.50;;
41253;SDS011;26987;59.928;30.306;2023-09-19T12:14:10;10.48;;;4.70;;
41253;SDS011;26987;59.928;30.306;2023-09-19T12:16:38;7.40;;;4.25;;
41253;SDS011;26987;59.928;30.306;2023-09-19T12:19:17;10.15;;;3.92;;
41253;SDS011;26987;59.928;30.306;2023-09-19T12:21:53;6.47;;;4.40;;
41253;SDS011;26987;59.928;30.306;2023-09-19T12:24:22;8.90;;;5.00;;
41253;SDS011;26987;59.928;30.306;2023-09-19T12:26:59;6.68;;;4.20;;
41253;SDS011;26987;59.928;30.306;2023-09-19T12:29:27;7.47;;;4.43;;
41253;SDS011;26987;59.928;30.306;2023-09-19T12:31:56;7.00;;;4.63;;
41253;SDS011;26987;59.928;30.306;2023-09-19T12:34:26;24.45;;;4.28;;
41253;SDS011;26987;59.928;30.306;2023-09-19T12:37:05;16.45;;;4.50;;
41253;SDS011;26987;59.928;30.306;2023-09-19T12:39:42;12.13;;;5.18;;
41253;SDS011;26987;59.928;30.306;2023-09-19T12:42:16;10.57;;;4.50;;
41253;SDS011;26987;59.928;30.306;2023-09-19T12:44:46;7.43;;;4.68;;
41253;SDS011;26987;59.928;30.306;2023-09-19T12:47:22;9.50;;;4.18;;
41253;SDS011;26987;59.928;30.306;2023-09-19T12:52:44;8.23;;;3.92;;
41253;SDS011;26987;59.928;30.306;2023-09-19T12:55:21;14.07;;;4.43;;
41253;SDS011;26987;59.928;30.306;2023-09-19T12:58:02;9.10;;;4.57;;
41253;SDS011;26987;59.928;30.306;2023-09-19T13:00:35;9.40;;;3.78;;
41253;SDS011;26987;59.928;30.306;2023-09-19T13:03:17;8.13;;;3.53;;
41253;SDS011;26987;59.928;30.306;2023-09-19T13:05:51;9.50;;;4.32;;
41253;SDS011;26987;59.928;30.306;2023-09-19T13:08:20;8.88;;;4.05;;
41253;SDS011;26987;59.928;30.306;2023-09-19T13:11:05;6.75;;;4.03;;
41253;SDS011;26987;59.928;30.306;2023-09-19T13:13:41;10.45;;;4.03;;
41253;SDS011;26987;59.928;30.306;2023-09-19T13:16:11;6.70;;;4.25;;
41253;SDS011;26987;59.928;30.306;2023-09-19T13:18:44;13.50;;;5.35;;
41253;SDS011;26987;59.928;30.306;2023-09-19T13:21:13;10.48;;;3.90;;
41253;SDS011;26987;59.928;30.306;2023-09-19T13:23:50;7.70;;;4.15;;
41253;SDS011;26987;59.928;30.306;2023-09-19T13:26:18;10.38;;;4.13;;
41253;SDS011;26987;59.928;30.306;2023-09-19T13:28:48;10.00;;;4.45;;
41253;SDS011;26987;59.928;30.306;2023-09-19T13:31:16;7.40;;;4.20;;
41253;SDS011;26987;59.928;30.306;2023-09-19T13:33:44;9.73;;;4.45;;
41253;SDS011;26987;59.928;30.306;2023-09-19T13:36:13;8.90;;;4.20;;
41253;SDS011;26987;59.928;30.306;2023-09-19T13:38:41;11.70;;;4.90;;
41253;SDS011;26987;59.928;30.306;2023-09-19T13:41:09;6.65;;;4.28;;
41253;SDS011;26987;59.928;30.306;2023-09-19T13:43:38;8.07;;;3.95;;
41253;SDS011;26987;59.928;30.306;2023-09-19T13:46:07;6.88;;;4.50;;
41253;SDS011;26987;59.928;30.306;2023-09-19T13:48:38;14.40;;;4.10;;
41253;SDS011;26987;59.928;30.306;2023-09-19T13:51:05;7.03;;;4.38;;
41253;SDS011;26987;59.928;30.306;2023-09-19T13:53:33;11.27;;;4.47;;
41253;SDS011;26987;59.928;30.306;2023-09-19T13:56:01;7.43;;;4.40;;
41253;SDS011;26987;59.928;30.306;2023-09-19T13:58:29;7.82;;;4.53;;
41253;SDS011;26987;59.928;30.306;2023-09-19T14:00:59;35.60;;;5.85;;
41253;SDS011;26987;59.928;30.306;2023-09-19T14:03:29;8.20;;;5.00;;
41253;SDS011;26987;59.928;30.306;2023-09-19T14:05:57;8.75;;;4.60;;
41253;SDS011;26987;59.928;30.306;2023-09-19T14:08:25;9.05;;;4.50;;
41253;SDS011;26987;59.928;30.306;2023-09-19T14:10:53;9.45;;;4.90;;
41253;SDS011;26987;59.928;30.306;2023-09-19T14:13:21;9.57;;;4.80;;
41253;SDS011;26987;59.928;30.306;2023-09-19T14:15:49;9.45;;;4.53;;
41253;SDS011;26987;59.928;30.306;2023-09-19T14:18:16;10.63;;;4.57;;
41253;SDS011;26987;59.928;30.306;2023-09-19T14:20:47;8.77;;;4.68;;
41253;SDS011;26987;59.928;30.306;2023-09-19T14:23:19;6.47;;;3.88;;
41253;SDS011;26987;59.928;30.306;2023-09-19T14:25:47;7.07;;;4.63;;
41253;SDS011;26987;59.928;30.306;2023-09-19T14:28:15;11.43;;;4.57;;
41253;SDS011;26987;59.928;30.306;2023-09-19T14:30:43;7.03;;;4.25;;
41253;SDS011;26987;59.928;30.306;2023-09-19T14:33:12;12.18;;;5.00;;
41253;SDS011;26987;59.928;30.306;2023-09-19T14:35:46;11.93;;;4.80;;
41253;SDS011;26987;59.928;30.306;2023-09-19T14:38:15;6.70;;;4.38;;
41253;SDS011;26987;59.928;30.306;2023-09-19T14:40:43;11.52;;;4.50;;
41253;SDS011;26987;59.928;30.306;2023-09-19T14:43:14;8.63;;;4.55;;
41253;SDS011;26987;59.928;30.306;2023-09-19T14:45:42;8.63;;;4.03;;
41253;SDS011;26987;59.928;30.306;2023-09-19T14:48:10;11.25;;;4.13;;
41253;SDS011;26987;59.928;30.306;2023-09-19T14:50:39;7.68;;;4.45;;
41253;SDS011;26987;59.928;30.306;2023-09-19T14:53:08;10.23;;;4.78;;
41253;SDS011;26987;59.928;30.306;2023-09-19T14:55:38;13.20;;;5.18;;
41253;SDS011;26987;59.928;30.306;2023-09-19T14:58:08;8.30;;;4.68;;
41253;SDS011;26987;59.928;30.306;2023-09-19T15:00:36;9.63;;;4.72;;
41253;SDS011;26987;59.928;30.306;2023-09-19T15:03:04;9.50;;;5.22;;
41253;SDS011;26987;59.928;30.306;2023-09-19T15:05:32;13.57;;;4.93;;
41253;SDS011;26987;59.928;30.306;2023-09-19T15:08:00;9.65;;;4.25;;
41253;SDS011;26987;59.928;30.306;2023-09-19T15:10:30;9.43;;;4.72;;
41253;SDS011;26987;59.928;30.306;2023-09-19T15:12:57;11.82;;;5.10;;
41253;SDS011;26987;59.928;30.306;2023-09-19T15:15:25;11.88;;;4.43;;